Time;durP1;ratioP1;P1;durP2;ratioP2;P2;SDS_P1;SDS_P2;PMS_P1;PMS_P2;Temp;Humidity;BMP_temperature;BMP_pressure;BME280_temperature;BME280_humidity;BME280_pressure;Samples;Min_cycle;Max_cycle;Signal;HPM_P1;HPM_P2
2021/04/20 00:00:09;;;;;;;15.10;9.90;;;;;;;11.14;40.45;101462.59;3588114;40;20149;-75
2021/04/20 00:02:36;;;;;;;14.68;9.60;;;;;;;11.08;40.18;101469.44;3588048;40;20138;-75
2021/04/20 00:05:07;;;;;;;13.93;9.68;;;;;;;11.07;40.29;101458.59;3588214;40;20044;-74
2021/04/20 00:07:34;;;;;;;14.82;10.10;;;;;;;11.02;40.23;101469.06;3587195;40;20064;-74
2021/04/20 00:10:01;;;;;;;14.48;10.00;;;;;;;10.99;40.13;101467.41;3587954;40;20060;-74
2021/04/20 00:12:29;;;;;;;14.45;9.70;;;;;;;10.97;40.32;101474.00;3587393;40;20412;-74
2021/04/20 00:14:57;;;;;;;10.88;8.60;;;;;;;10.94;39.98;101466.03;3588084;40;20049;-74
2021/04/20 00:17:28;;;;;;;15.70;8.93;;;;;;;10.89;40.15;101459.03;3586462;40;20405;-74
2021/04/20 00:19:55;;;;;;;12.45;8.88;;;;;;;10.87;40.26;101458.28;3588082;40;20025;-74
2021/04/20 00:22:23;;;;;;;13.85;9.50;;;;;;;10.85;40.39;101457.56;3588316;40;20097;-75
2021/04/20 00:24:50;;;;;;;15.77;9.95;;;;;;;10.81;40.25;101445.06;3580852;40;20120;-74
2021/04/20 00:27:17;;;;;;;15.23;10.48;;;;;;;10.80;40.22;101445.16;3578305;40;20088;-75
2021/04/20 00:29:44;;;;;;;14.40;9.80;;;;;;;10.78;40.34;101447.19;3584112;40;20053;-74
2021/04/20 00:32:13;;;;;;;13.93;9.25;;;;;;;10.75;40.15;101445.53;3587401;40;20318;-74
2021/04/20 00:34:40;;;;;;;17.30;10.15;;;;;;;10.71;40.40;101438.56;3588490;40;20056;-74
2021/04/20 00:37:08;;;;;;;12.07;8.98;;;;;;;10.69;40.12;101442.41;3587376;40;20080;-74
2021/04/20 00:39:35;;;;;;;12.52;8.88;;;;;;;10.66;40.29;101440.78;3586888;40;20080;-74
2021/04/20 00:42:04;;;;;;;12.68;8.65;;;;;;;10.63;40.48;101432.81;3588000;40;20114;-75
2021/04/20 00:44:32;;;;;;;11.48;8.43;;;;;;;10.60;40.52;101437.66;3587226;40;20457;-74
2021/04/20 00:47:00;;;;;;;13.05;8.73;;;;;;;10.57;40.33;101430.53;3587614;40;20052;-74
2021/04/20 00:49:30;;;;;;;12.23;8.70;;;;;;;10.54;40.23;101428.91;3586860;40;20040;-78
2021/04/20 00:51:57;;;;;;;12.02;8.38;;;;;;;10.51;40.31;101426.44;3587209;40;20052;-73
2021/04/20 00:54:25;;;;;;;11.80;8.07;;;;;;;10.48;40.52;101434.88;3586059;40;20397;-74
2021/04/20 00:56:53;;;;;;;11.57;7.55;;;;;;;10.45;40.45;101429.63;3576773;40;20440;-74
2021/04/20 00:59:21;;;;;;;12.07;8.40;;;;;;;10.44;40.31;101427.03;3576923;40;20059;-74
2021/04/20 01:01:49;;;;;;;10.60;7.43;;;;;;;10.41;40.69;101428.13;3576638;40;20057;-74
2021/04/20 01:04:19;;;;;;;10.95;8.02;;;;;;;10.40;40.49;101428.25;3579353;40;20033;-73
2021/04/20 01:06:48;;;;;;;11.23;7.70;;;;;;;10.39;40.59;101427.38;3586701;40;20044;-73
2021/04/20 01:09:17;;;;;;;11.50;7.70;;;;;;;10.37;40.49;101428.50;3587853;40;20092;-73
2021/04/20 01:11:45;;;;;;;12.93;8.73;;;;;;;10.36;40.58;101426.75;3587888;40;20054;-73
2021/04/20 01:14:13;;;;;;;12.73;8.85;;;;;;;10.34;40.53;101428.72;3587390;40;20389;-73
2021/04/20 01:16:40;;;;;;;11.43;8.27;;;;;;;10.33;40.55;101429.69;3586857;40;20270;-73
2021/04/20 01:19:09;;;;;;;14.23;9.38;;;;;;;10.33;40.80;101432.44;3587397;40;20063;-74
2021/04/20 01:21:38;;;;;;;13.50;8.98;;;;;;;10.31;40.80;101423.47;3586931;40;20071;-73
2021/04/20 01:24:21;;;;;;;15.07;9.68;;;;;;;10.31;40.34;101426.19;3587360;40;20044;-74
2021/04/20 01:26:48;;;;;;;14.40;9.23;;;;;;;10.24;40.66;101425.81;3587300;40;20397;-74
2021/04/20 01:29:16;;;;;;;13.35;8.88;;;;;;;10.26;40.54;101423.84;3589108;40;20064;-74
2021/04/20 01:31:46;;;;;;;12.65;8.73;;;;;;;10.26;40.50;101423.84;3585745;40;20053;-74
2021/04/20 01:34:14;;;;;;;11.43;8.10;;;;;;;10.23;40.43;101429.53;3578506;40;20111;-74
2021/04/20 01:36:42;;;;;;;12.23;8.13;;;;;;;10.22;40.43;101421.44;3588774;40;20048;-74
2021/04/20 01:39:12;;;;;;;13.27;7.85;;;;;;;10.21;40.61;101422.41;3589016;40;20550;-74
2021/04/20 01:41:40;;;;;;;12.75;8.50;;;;;;;10.21;40.64;101425.16;3589332;40;20044;-74
2021/04/20 01:44:08;;;;;;;12.30;8.05;;;;;;;10.19;40.48;101424.41;3589036;40;20294;-74
2021/04/20 01:46:36;;;;;;;12.90;8.13;;;;;;;10.18;40.43;101426.28;3589123;40;20051;-74
2021/04/20 01:49:04;;;;;;;12.65;7.65;;;;;;;10.16;40.48;101425.50;3588957;40;20060;-74
2021/04/20 01:51:31;;;;;;;12.25;7.63;;;;;;;10.13;40.38;101414.78;3589304;40;20052;-74
2021/04/20 01:53:59;;;;;;;11.30;7.85;;;;;;;10.13;40.34;101417.53;3587440;40;20045;-74
2021/04/20 01:56:29;;;;;;;12.88;8.73;;;;;;;10.13;40.51;101423.00;3591489;40;20057;-74
2021/04/20 01:58:59;;;;;;;11.13;7.97;;;;;;;10.11;40.31;101420.41;3599388;39;20063;-74
2021/04/20 02:01:28;;;;;;;10.93;7.40;;;;;;;10.09;40.50;101416.91;3601334;40;20305;-74
2021/04/20 02:03:56;;;;;;;12.38;8.15;;;;;;;10.07;40.44;101420.72;3599605;40;20415;-74
2021/04/20 02:06:25;;;;;;;10.48;7.63;;;;;;;10.07;40.57;101418.88;3581912;39;20073;-74
2021/04/20 02:08:53;;;;;;;11.73;7.72;;;;;;;10.04;40.42;101421.00;3586742;40;20052;-74
2021/04/20 02:11:23;;;;;;;11.23;7.30;;;;;;;10.02;40.60;101421.09;3588802;40;20486;-74
2021/04/20 02:13:51;;;;;;;9.90;7.22;;;;;;;10.01;40.49;101426.66;3587618;40;20353;-74
2021/04/20 02:16:21;;;;;;;11.50;7.68;;;;;;;10.00;40.57;101423.06;3582806;40;20102;-74
2021/04/20 02:18:53;;;;;;;11.18;7.63;;;;;;;9.99;40.64;101417.72;3586260;40;20423;-74
2021/04/20 02:21:21;;;;;;;11.82;7.70;;;;;;;9.93;40.50;101419.06;3588808;40;20126;-74
2021/04/20 02:23:49;;;;;;;10.82;7.63;;;;;;;9.93;40.33;101416.31;3585932;40;20416;-74
2021/04/20 02:26:20;;;;;;;11.15;7.35;;;;;;;9.93;40.40;101420.91;3584215;40;20056;-74
2021/04/20 02:28:47;;;;;;;10.52;6.80;;;;;;;9.90;40.28;101412.94;3587290;40;20133;-74
2021/04/20 02:31:14;;;;;;;12.00;7.20;;;;;;;9.88;40.46;101414.91;3588759;40;20052;-74
2021/04/20 02:33:43;;;;;;;12.05;7.70;;;;;;;9.88;40.42;101417.63;3588734;40;20052;-74
2021/04/20 02:36:11;;;;;;;11.00;7.30;;;;;;;9.84;40.32;101417.00;3588599;40;20089;-74
2021/04/20 02:38:38;;;;;;;11.30;7.57;;;;;;;9.83;40.44;101420.72;3581917;40;20123;-74
2021/04/20 02:41:07;;;;;;;12.48;7.47;;;;;;;9.82;40.46;101416.22;3585904;40;20048;-74
2021/04/20 02:43:35;;;;;;;13.05;8.25;;;;;;;9.79;40.47;101421.94;3585747;40;20503;-74
2021/04/20 02:46:03;;;;;;;12.70;7.82;;;;;;;9.78;40.49;101422.06;3588471;40;20048;-74
2021/04/20 02:48:31;;;;;;;12.13;7.55;;;;;;;9.77;40.68;101415.72;3587255;40;20048;-74
2021/04/20 02:51:00;;;;;;;11.98;7.70;;;;;;;9.77;40.44;101423.91;3587978;40;20067;-74
2021/04/20 02:53:30;;;;;;;14.15;8.52;;;;;;;9.73;40.48;101420.53;3582433;40;20064;-73
2021/04/20 02:55:58;;;;;;;12.77;7.78;;;;;;;9.71;40.40;101416.19;3587800;40;20060;-74
2021/04/20 02:58:28;;;;;;;13.90;8.30;;;;;;;9.70;40.50;101423.50;3577251;40;20053;-73
2021/04/20 03:00:57;;;;;;;11.57;7.50;;;;;;;9.69;40.45;101421.75;3586024;40;20514;-74
2021/04/20 03:03:25;;;;;;;13.13;8.05;;;;;;;9.65;40.48;101422.91;3585147;40;20118;-74
2021/04/20 03:05:53;;;;;;;12.25;8.20;;;;;;;9.63;40.43;101422.13;3588336;40;20053;-73
2021/04/20 03:08:21;;;;;;;11.75;7.70;;;;;;;9.62;40.23;101416.81;3588096;40;20298;-73
2021/04/20 03:10:50;;;;;;;12.23;7.93;;;;;;;9.59;40.26;101414.31;3586593;40;20052;-74
2021/04/20 03:13:17;;;;;;;13.30;8.30;;;;;;;9.55;40.42;101408.19;3585315;40;20084;-74
2021/04/20 03:15:45;;;;;;;11.07;7.50;;;;;;;9.54;40.34;101413.78;3587564;40;20047;-74
2021/04/20 03:18:13;;;;;;;12.02;7.88;;;;;;;9.51;40.47;101406.66;3588431;40;20084;-74
2021/04/20 03:20:41;;;;;;;10.73;7.50;;;;;;;9.49;40.48;101402.31;3588048;40;20077;-74
2021/04/20 03:23:11;;;;;;;12.32;7.60;;;;;;;9.46;40.66;101403.41;3582665;40;20059;-75
2021/04/20 03:25:43;;;;;;;12.60;8.02;;;;;;;9.47;40.32;101409.72;3588317;40;20126;-73
2021/04/20 03:28:20;;;;;;;11.68;6.97;;;;;;;9.43;40.39;101400.03;3585289;40;20088;-74
2021/04/20 03:30:53;;;;;;;10.73;7.25;;;;;;;9.43;40.45;101400.03;3588191;40;20397;-74
2021/04/20 03:33:31;;;;;;;11.75;7.70;;;;;;;9.41;40.36;101405.59;3580416;40;20312;-74
2021/04/20 03:36:14;;;;;;;11.00;7.18;;;;;;;9.39;40.64;101405.69;3582280;40;20048;-74
2021/04/20 03:38:53;;;;;;;11.70;7.15;;;;;;;9.37;40.44;101394.03;3587850;40;20534;-74
2021/04/20 03:41:26;;;;;;;12.25;7.25;;;;;;;9.35;40.38;101398.72;3591924;40;20056;-74
2021/04/20 03:43:58;;;;;;;10.25;6.47;;;;;;;9.33;40.33;101400.69;3589197;40;20052;-74
2021/04/20 03:46:32;;;;;;;10.10;6.78;;;;;;;9.31;40.58;101399.91;3589130;40;20056;-75
2021/04/20 03:49:05;;;;;;;9.90;6.93;;;;;;;9.29;40.41;101388.25;3579207;40;20090;-74
2021/04/20 03:51:34;;;;;;;9.50;6.53;;;;;;;9.24;40.35;101395.91;3590866;39;20079;-75
2021/04/20 03:54:07;;;;;;;11.15;6.55;;;;;;;9.24;40.36;101400.47;3588098;40;20054;-74
2021/04/20 03:56:38;;;;;;;12.03;7.37;;;;;;;9.21;40.39;101396.13;3588053;40;20058;-74
2021/04/20 03:59:07;;;;;;;11.15;7.18;;;;;;;9.22;40.13;101396.97;3588123;40;20286;-73
2021/04/20 04:01:40;;;;;;;11.57;6.93;;;;;;;9.21;40.52;101392.53;3586567;40;20048;-75
2021/04/20 04:04:08;;;;;;;10.07;6.80;;;;;;;9.16;40.35;101386.50;3588805;40;20376;-74
2021/04/20 04:06:37;;;;;;;11.73;7.38;;;;;;;9.17;40.38;101394.59;3587026;40;20051;-74
2021/04/20 04:09:07;;;;;;;10.60;6.57;;;;;;;9.16;40.50;101391.97;3586743;40;20048;-74
2021/04/20 04:11:37;;;;;;;11.05;7.22;;;;;;;9.16;40.55;101390.13;3588353;40;20419;-74
2021/04/20 04:14:07;;;;;;;10.15;6.55;;;;;;;9.13;40.62;101395.81;3587912;40;20105;-74
2021/04/20 04:16:39;;;;;;;9.95;6.05;;;;;;;9.11;40.54;101392.31;3588035;40;20044;-74
2021/04/20 04:19:10;;;;;;;10.85;7.20;;;;;;;9.11;40.20;101396.91;3577555;40;20075;-74
2021/04/20 04:21:44;;;;;;;10.05;7.05;;;;;;;9.10;40.45;101386.97;3588164;40;20068;-73
2021/04/20 04:24:13;;;;;;;8.70;6.35;;;;;;;9.06;40.38;101396.34;3586035;40;20093;-74
2021/04/20 04:26:49;;;;;;;9.45;6.25;;;;;;;9.05;40.48;101390.03;3582426;40;20055;-73
2021/04/20 04:29:20;;;;;;;10.63;6.80;;;;;;;9.05;40.44;101398.22;3586471;40;20052;-74
2021/04/20 04:31:51;;;;;;;9.35;6.25;;;;;;;9.01;40.35;101392.09;3588268;40;20401;-74
2021/04/20 04:34:28;;;;;;;9.63;5.88;;;;;;;9.00;40.41;101398.53;3587664;40;20387;-73
2021/04/20 04:37:06;;;;;;;8.95;6.15;;;;;;;8.99;40.48;101391.31;3591754;40;20455;-74
2021/04/20 04:39:49;;;;;;;9.93;6.05;;;;;;;8.96;40.43;101397.03;3586708;40;20048;-74
2021/04/20 04:42:19;;;;;;;9.68;6.30;;;;;;;8.98;40.51;101399.63;3589874;40;20044;-74
2021/04/20 04:44:50;;;;;;;11.20;6.78;;;;;;;8.95;40.54;101394.41;3587271;40;20057;-74
2021/04/20 04:47:17;;;;;;;9.55;6.18;;;;;;;8.94;40.45;101395.38;3577667;40;20060;-73
2021/04/20 04:49:45;;;;;;;10.73;6.53;;;;;;;8.94;40.54;101398.09;3587310;40;20052;-74
2021/04/20 04:52:14;;;;;;;9.80;6.90;;;;;;;8.92;40.46;101387.28;3583471;40;20075;-73
2021/04/20 04:54:43;;;;;;;10.15;5.95;;;;;;;8.91;40.52;101391.00;3587386;40;20044;-74
2021/04/20 04:57:13;;;;;;;10.18;6.50;;;;;;;8.93;40.74;101393.63;3587837;40;20045;-74
2021/04/20 04:59:43;;;;;;;9.85;6.70;;;;;;;8.92;40.61;101392.75;3582528;40;20044;-74
2021/04/20 05:02:15;;;;;;;10.00;6.45;;;;;;;8.89;40.56;101384.75;3578975;40;20060;-74
2021/04/20 05:04:44;;;;;;;11.57;6.70;;;;;;;8.89;40.53;101392.06;3585842;40;20416;-74
2021/04/20 05:07:12;;;;;;;10.52;6.68;;;;;;;8.89;40.69;101386.63;3588324;40;20056;-73
2021/04/20 05:09:43;;;;;;;11.07;6.93;;;;;;;8.89;40.70;101403.88;3588859;40;20056;-74
2021/04/20 05:12:12;;;;;;;10.75;6.32;;;;;;;8.88;40.72;101399.41;3589587;40;20052;-74
2021/04/20 05:14:41;;;;;;;10.00;6.47;;;;;;;8.89;40.92;101401.13;3585500;40;20076;-73
2021/04/20 05:17:12;;;;;;;10.38;6.38;;;;;;;8.90;40.89;101404.75;3587241;40;20133;-73
2021/04/20 05:19:42;;;;;;;9.45;6.50;;;;;;;8.89;41.04;101398.41;3587391;40;20051;-74
2021/04/20 05:22:12;;;;;;;10.20;6.93;;;;;;;8.91;41.00;101409.22;3586963;40;20381;-73
2021/04/20 05:24:40;;;;;;;9.55;6.47;;;;;;;8.90;41.04;101407.47;3588878;40;20044;-73
2021/04/20 05:27:10;;;;;;;10.23;6.35;;;;;;;8.92;41.11;101406.38;3588142;40;20071;-74
2021/04/20 05:29:40;;;;;;;10.05;6.65;;;;;;;8.96;41.19;101409.78;3588679;40;20060;-73
2021/04/20 05:32:12;;;;;;;10.82;6.35;;;;;;;8.97;41.21;101411.53;3588847;40;20455;-75
2021/04/20 05:34:40;;;;;;;9.40;6.25;;;;;;;9.00;41.26;101404.00;3582321;40;20048;-74
2021/04/20 05:37:10;;;;;;;9.77;6.20;;;;;;;9.04;41.27;101409.25;3594021;40;20644;-73
2021/04/20 05:39:37;;;;;;;9.90;6.20;;;;;;;9.07;41.30;101409.00;3590166;39;20051;-74
2021/04/20 05:42:05;;;;;;;10.73;6.18;;;;;;;9.10;41.40;101408.78;3586702;40;20056;-74
2021/04/20 05:44:34;;;;;;;10.65;6.50;;;;;;;9.12;41.24;101404.97;3588693;40;20052;-73
2021/04/20 05:47:01;;;;;;;9.25;5.68;;;;;;;9.15;41.37;101401.13;3588604;40;20029;-73
2021/04/20 05:49:31;;;;;;;11.02;6.32;;;;;;;9.18;41.28;101407.25;3587410;40;20052;-73
2021/04/20 05:51:59;;;;;;;9.10;6.18;;;;;;;9.22;41.40;101407.91;3587742;40;20033;-73
2021/04/20 05:54:37;;;;;;;10.60;6.45;;;;;;;9.22;41.40;101406.03;3588392;40;20064;-73
2021/04/20 05:57:07;;;;;;;11.25;6.22;;;;;;;9.27;41.35;101411.19;3586244;40;20056;-73
2021/04/20 05:59:37;;;;;;;10.23;6.40;;;;;;;9.30;41.36;101408.25;3587817;40;20070;-73
2021/04/20 06:02:09;;;;;;;10.32;6.50;;;;;;;9.34;41.32;101407.91;3578289;40;20303;-75
2021/04/20 06:04:39;;;;;;;9.43;6.20;;;;;;;9.34;41.43;101410.63;3588557;40;20144;-74
2021/04/20 06:07:11;;;;;;;9.40;6.10;;;;;;;9.39;41.29;101413.00;3591836;40;20064;-74
2021/04/20 06:09:49;;;;;;;11.60;6.95;;;;;;;9.41;41.36;101416.50;3587633;40;20392;-74
2021/04/20 06:12:17;;;;;;;9.77;7.07;;;;;;;9.43;41.45;101417.28;3588031;40;20326;-74
2021/04/20 06:14:45;;;;;;;9.82;6.72;;;;;;;9.47;41.68;101423.38;3586004;40;20401;-74
2021/04/20 06:17:17;;;;;;;12.82;7.70;;;;;;;9.47;41.52;101418.78;3588507;40;20036;-73
2021/04/20 06:19:47;;;;;;;11.25;7.35;;;;;;;9.53;41.57;101422.94;3584607;40;20056;-73
2021/04/20 06:22:17;;;;;;;11.38;7.80;;;;;;;9.55;41.58;101427.28;3588246;40;20045;-74
2021/04/20 06:24:46;;;;;;;10.73;7.95;;;;;;;9.59;41.81;101425.22;3586138;40;20060;-74
2021/04/20 06:27:14;;;;;;;11.73;8.10;;;;;;;9.61;42.03;101420.53;3588093;40;20091;-74
2021/04/20 06:29:44;;;;;;;12.43;7.68;;;;;;;9.65;42.29;101425.66;3588006;40;20060;-74
2021/04/20 06:32:26;;;;;;;10.57;7.45;;;;;;;9.72;42.30;101429.69;3587965;40;20059;-74
2021/04/20 06:34:55;;;;;;;12.23;8.48;;;;;;;9.79;42.33;101427.41;3584114;40;20084;-74
2021/04/20 06:37:24;;;;;;;12.40;8.38;;;;;;;9.86;42.23;101425.09;3587662;40;20083;-73
2021/04/20 06:39:51;;;;;;;11.52;8.68;;;;;;;9.94;42.24;101430.84;3587427;40;20052;-73
2021/04/20 06:42:41;;;;;;;11.77;8.23;;;;;;;10.02;42.35;101426.56;3589358;40;20060;-73
2021/04/20 06:45:15;;;;;;;11.90;8.52;;;;;;;10.08;42.22;101423.34;3587707;40;20102;-73
2021/04/20 06:47:52;;;;;;;11.07;8.60;;;;;;;10.20;42.57;101427.03;3588525;40;20045;-73
2021/04/20 06:50:22;;;;;;;11.80;7.70;;;;;;;10.27;42.80;101422.84;3588296;40;20052;-73
2021/04/20 06:53:00;;;;;;;12.07;8.50;;;;;;;10.36;42.61;101419.41;3586470;40;20110;-73
2021/04/20 06:55:37;;;;;;;11.70;8.00;;;;;;;10.49;42.67;101431.16;3579273;40;20055;-72
2021/04/20 06:58:08;;;;;;;10.65;7.82;;;;;;;10.60;42.70;101419.38;3587766;40;20363;-73
2021/04/20 07:00:50;;;;;;;9.95;7.82;;;;;;;10.71;42.64;101424.00;3584955;40;20052;-74
2021/04/20 07:03:25;;;;;;;11.90;8.55;;;;;;;10.85;42.42;101418.38;3587557;40;20052;-73
2021/04/20 07:06:06;;;;;;;12.30;8.65;;;;;;;10.98;42.42;101415.53;3588667;40;20133;-74
2021/04/20 07:08:43;;;;;;;11.88;8.43;;;;;;;11.09;42.47;101419.16;3571304;40;20045;-74
2021/04/20 07:11:15;;;;;;;12.40;8.68;;;;;;;11.21;42.73;101412.69;3592711;39;20364;-73
2021/04/20 07:13:45;;;;;;;10.93;8.27;;;;;;;11.34;42.41;101415.31;3586299;40;20048;-73
2021/04/20 07:16:23;;;;;;;11.68;8.13;;;;;;;11.47;42.12;101409.72;3587819;40;20040;-73
2021/04/20 07:19:26;;;;;;;11.50;8.10;;;;;;;11.57;41.77;101418.94;3587442;40;20044;-73
2021/04/20 07:22:37;;;;;;;9.85;7.57;;;;;;;11.71;42.06;101412.31;3560946;40;20083;-75
2021/04/20 07:25:18;;;;;;;8.60;6.18;;;;;;;11.85;41.86;101417.53;3587590;40;20064;-73
2021/04/20 07:28:09;;;;;;;10.65;6.95;;;;;;;11.99;41.42;101409.06;3578965;40;20311;-74
2021/04/20 07:30:44;;;;;;;9.88;7.00;;;;;;;12.10;41.66;101411.75;3586652;40;20053;-72
2021/04/20 07:33:48;;;;;;;10.90;6.88;;;;;;;12.26;41.20;101414.09;3584584;40;20056;-73
2021/04/20 07:36:23;;;;;;;10.30;6.80;;;;;;;12.37;41.10;101416.78;3584523;40;20056;-73
2021/04/20 07:38:57;;;;;;;9.05;6.38;;;;;;;12.47;40.50;101415.00;3585274;40;20132;-73
2021/04/20 07:41:34;;;;;;;10.60;6.53;;;;;;;12.57;40.62;101413.22;3587659;40;20613;-74
2021/04/20 07:44:08;;;;;;;11.65;6.93;;;;;;;12.69;40.62;101414.00;3591125;40;20384;-74
2021/04/20 07:46:43;;;;;;;11.40;7.47;;;;;;;12.80;39.81;101413.97;3593017;39;20053;-73
2021/04/20 07:49:17;;;;;;;10.18;7.00;;;;;;;12.90;39.58;101412.16;3584152;40;20048;-74
2021/04/20 07:51:55;;;;;;;9.88;6.80;;;;;;;13.01;39.24;101411.22;3588641;40;20100;-72
2021/04/20 07:54:36;;;;;;;9.88;6.93;;;;;;;13.10;39.08;101408.56;3584906;40;20052;-72
2021/04/20 07:57:11;;;;;;;11.20;6.93;;;;;;;13.20;39.13;101415.97;3586941;40;20052;-73
2021/04/20 07:59:44;;;;;;;9.27;6.68;;;;;;;13.30;38.88;101409.53;3587593;40;20400;-74
2021/04/20 08:02:21;;;;;;;9.43;6.65;;;;;;;13.37;38.83;101407.97;3588003;40;20056;-75
2021/04/20 08:04:59;;;;;;;9.30;6.25;;;;;;;13.49;38.47;101408.78;3587488;40;20585;-73
2021/04/20 08:07:39;;;;;;;9.55;5.97;;;;;;;13.59;38.37;101414.28;3587766;40;20053;-74
2021/04/20 08:10:11;;;;;;;11.15;7.00;;;;;;;13.67;38.51;101403.47;3583452;40;20045;-74
2021/04/20 08:12:49;;;;;;;9.93;6.63;;;;;;;13.75;37.92;101409.13;3588685;40;20047;-74
2021/04/20 08:15:24;;;;;;;7.97;5.78;;;;;;;13.85;38.32;101410.03;3591642;40;20049;-74
2021/04/20 08:18:00;;;;;;;10.38;6.53;;;;;;;13.95;38.14;101408.22;3586114;40;20052;-73
2021/04/20 08:20:28;;;;;;;9.75;7.13;;;;;;;14.01;38.42;101402.16;3583649;40;20045;-72
2021/04/20 08:22:58;;;;;;;11.40;7.78;;;;;;;14.11;38.12;101399.41;3595018;40;20048;-72
2021/04/20 08:25:31;;;;;;;11.35;6.95;;;;;;;14.21;37.08;101395.69;3587947;40;20059;-72
2021/04/20 08:28:15;;;;;;;11.10;7.53;;;;;;;14.26;36.82;101396.09;3587764;40;20114;-74
2021/04/20 08:30:47;;;;;;;10.07;7.07;;;;;;;14.36;37.66;101401.63;3580848;40;20518;-75
2021/04/20 08:33:18;;;;;;;10.23;7.35;;;;;;;14.41;38.08;101396.53;3586294;40;20080;-71
2021/04/20 08:35:49;;;;;;;9.98;7.22;;;;;;;14.51;37.69;101394.66;3582151;40;20064;-73
2021/04/20 08:38:42;;;;;;;11.05;8.15;;;;;;;14.60;36.95;101393.78;3588043;40;20081;-72
2021/04/20 08:41:17;;;;;;;11.48;7.47;;;;;;;14.64;36.67;101394.38;3589441;40;20325;-73
2021/04/20 08:43:56;;;;;;;10.30;7.22;;;;;;;14.73;37.05;101398.16;3589025;40;20356;-72
2021/04/20 08:46:35;;;;;;;10.88;7.22;;;;;;;14.78;37.11;101393.97;3587971;40;20044;-73
2021/04/20 08:49:12;;;;;;;11.02;7.75;;;;;;;14.89;36.40;101393.81;3589367;40;20060;-73
2021/04/20 08:51:53;;;;;;;11.02;7.75;;;;;;;14.98;36.18;101397.56;3589877;40;20068;-74
2021/04/20 08:54:36;;;;;;;11.43;8.30;;;;;;;15.03;35.91;101396.09;3584109;40;20325;-72
2021/04/20 08:57:18;;;;;;;11.45;7.80;;;;;;;15.11;36.41;101392.59;3586208;40;20071;-73
2021/04/20 09:00:15;;;;;;;11.82;8.18;;;;;;;15.15;36.30;101391.25;3587602;40;20048;-73
2021/04/20 09:02:51;;;;;;;11.88;7.57;;;;;;;15.26;36.09;101393.84;3590653;40;20048;-72
2021/04/20 09:05:23;;;;;;;12.00;7.15;;;;;;;15.34;36.77;101393.97;3589379;40;20045;-72
2021/04/20 09:08:13;;;;;;;11.52;8.18;;;;;;;15.42;35.17;101387.69;3587462;40;20129;-72
2021/04/20 09:10:45;;;;;;;10.38;7.50;;;;;;;15.50;35.59;101389.69;3589029;40;20056;-72
2021/04/20 09:13:19;;;;;;;9.73;7.13;;;;;;;15.56;35.88;101389.94;3588733;40;20441;-72
2021/04/20 09:15:50;;;;;;;10.25;7.47;;;;;;;15.63;35.87;101391.09;3589460;40;20041;-72
2021/04/20 09:18:21;;;;;;;10.48;7.45;;;;;;;15.70;35.92;101392.25;3590223;40;20056;-71
2021/04/20 09:20:57;;;;;;;10.27;7.60;;;;;;;15.77;34.48;101389.75;3587689;40;20321;-72
2021/04/20 09:23:34;;;;;;;17.13;9.02;;;;;;;15.83;34.96;101389.13;3589353;40;20052;-71
2021/04/20 09:26:16;;;;;;;10.52;7.50;;;;;;;15.91;34.59;101385.59;3587921;40;20049;-72
2021/04/20 09:28:58;;;;;;;9.27;7.03;;;;;;;15.96;33.97;101384.13;3589012;40;20052;-73
2021/04/20 09:31:32;;;;;;;11.05;7.13;;;;;;;16.00;33.99;101381.91;3585104;40;20044;-72
2021/04/20 09:34:02;;;;;;;9.98;7.28;;;;;;;16.04;34.72;101384.22;3585051;40;20452;-74
2021/04/20 09:36:40;;;;;;;9.45;6.30;;;;;;;16.11;33.60;101385.34;3585421;40;20092;-74
2021/04/20 09:39:10;;;;;;;8.80;6.15;;;;;;;16.12;34.29;101378.78;3578776;40;20244;-73
2021/04/20 09:41:42;;;;;;;8.25;6.07;;;;;;;16.22;34.16;101383.38;3592088;40;20148;-73
2021/04/20 09:44:22;;;;;;;9.63;6.53;;;;;;;16.28;32.76;101382.75;3590929;40;20044;-73
2021/04/20 09:46:55;;;;;;;9.15;6.40;;;;;;;16.34;33.73;101382.97;3588197;40;20317;-73
2021/04/20 09:49:40;;;;;;;10.00;6.75;;;;;;;16.43;33.70;101381.16;3587852;40;20424;-73
2021/04/20 09:52:11;;;;;;;10.23;6.95;;;;;;;16.50;33.43;101383.16;3587220;40;20349;-73
2021/04/20 09:54:47;;;;;;;9.60;6.55;;;;;;;16.56;33.41;101382.50;3589124;40;20494;-74
2021/04/20 09:57:20;;;;;;;9.88;7.15;;;;;;;16.65;32.80;101380.69;3586754;40;20428;-76
2021/04/20 09:59:53;;;;;;;;;;;;;;;16.42;33.70;101385.81;3590171;40;20040;-72
2021/04/20 10:02:38;;;;;;;8.30;5.75;;;;;;;16.77;32.61;101378.56;3588351;40;20038;-72
2021/04/20 10:05:16;;;;;;;8.95;6.32;;;;;;;16.88;32.65;101381.91;3587123;40;20401;-73
2021/04/20 10:08:08;;;;;;;10.18;7.38;;;;;;;16.91;31.56;101377.97;3594287;40;20055;-73
2021/04/20 10:10:49;;;;;;;8.40;6.28;;;;;;;16.98;31.36;101379.06;3583717;40;20041;-71
2021/04/20 10:13:29;;;;;;;7.68;5.30;;;;;;;17.05;32.03;101382.91;3580256;40;20430;-71
2021/04/20 10:16:05;;;;;;;8.25;5.57;;;;;;;17.11;31.61;101375.88;3584254;40;20318;-71
2021/04/20 10:18:41;;;;;;;9.95;7.28;;;;;;;17.14;31.15;101375.53;3586596;40;20313;-72
2021/04/20 10:21:18;;;;;;;9.25;6.75;;;;;;;17.17;30.98;101372.47;3585465;40;20060;-71
2021/04/20 10:23:53;;;;;;;10.50;6.65;;;;;;;17.19;31.25;101364.88;3581823;40;20052;-72
2021/04/20 10:26:28;;;;;;;10.02;5.90;;;;;;;17.21;31.86;101377.47;3588963;40;20075;-71
2021/04/20 10:28:59;;;;;;;8.98;6.50;;;;;;;17.22;31.68;101361.75;3582251;40;20064;-71
2021/04/20 10:31:35;;;;;;;8.23;6.25;;;;;;;17.26;31.10;101365.94;3588501;40;20187;-72
2021/04/20 10:34:03;;;;;;;9.32;6.53;;;;;;;17.25;31.42;101359.56;3588039;40;20048;-71
2021/04/20 10:36:32;;;;;;;7.40;5.65;;;;;;;17.27;32.21;101354.75;3583271;40;20126;-72
2021/04/20 10:39:07;;;;;;;8.70;6.20;;;;;;;17.36;30.78;101363.09;3582998;40;20074;-72
2021/04/20 10:41:35;;;;;;;9.73;6.35;;;;;;;17.39;31.97;101357.22;3587091;40;20085;-71
2021/04/20 10:44:12;;;;;;;8.23;6.32;;;;;;;17.45;30.70;101353.81;3588812;40;20417;-71
2021/04/20 10:46:42;;;;;;;9.23;6.22;;;;;;;17.48;31.46;101359.00;3587318;40;20059;-71
2021/04/20 10:49:15;;;;;;;9.02;6.10;;;;;;;17.54;30.41;101352.81;3586888;40;20071;-71
2021/04/20 10:51:45;;;;;;;7.93;5.57;;;;;;;17.55;31.51;101351.78;3586036;40;20056;-71
2021/04/20 10:54:14;;;;;;;8.40;6.32;;;;;;;17.60;31.07;101346.63;3582002;40;20048;-71
2021/04/20 10:56:49;;;;;;;10.63;6.95;;;;;;;17.65;30.27;101344.22;3583248;40;20053;-71
2021/04/20 10:59:35;;;;;;;8.82;6.35;;;;;;;17.65;30.23;101339.53;3586321;40;20099;-71
2021/04/20 11:02:06;;;;;;;8.60;6.38;;;;;;;17.71;30.82;101340.78;3587131;40;20323;-71
2021/04/20 11:04:37;;;;;;;8.68;6.20;;;;;;;17.75;30.23;101335.78;3586471;40;20048;-71
2021/04/20 11:07:21;;;;;;;10.73;7.32;;;;;;;17.77;29.73;101333.72;3586245;40;20060;-76
2021/04/20 11:09:57;;;;;;;9.32;6.43;;;;;;;17.79;29.42;101335.25;3585087;40;20071;-72
2021/04/20 11:12:26;;;;;;;8.18;5.78;;;;;;;17.80;30.24;101331.47;3586732;40;20123;-74
2021/04/20 11:14:55;;;;;;;8.05;5.78;;;;;;;17.82;30.07;101326.63;3586810;40;20072;-72
2021/04/20 11:17:31;;;;;;;8.23;6.00;;;;;;;17.86;29.17;101325.28;3587792;40;20052;-71
2021/04/20 11:20:07;;;;;;;8.57;6.18;;;;;;;17.88;29.95;101319.53;3586927;40;20052;-71
2021/04/20 11:22:40;;;;;;;9.93;6.57;;;;;;;17.88;28.92;101323.19;3590775;40;20056;-72
2021/04/20 11:25:24;;;;;;;8.25;6.18;;;;;;;17.93;28.88;101320.78;3596277;39;20194;-72
2021/04/20 11:27:58;;;;;;;9.40;6.75;;;;;;;17.94;29.18;101319.75;3579422;40;20338;-73
2021/04/20 11:30:31;;;;;;;9.10;6.90;;;;;;;17.96;29.28;101309.38;3590313;40;20059;-72
2021/04/20 11:33:01;;;;;;;;;;;;;;;17.67;29.77;101309.81;3584842;40;20061;-71
2021/04/20 11:35:30;;;;;;;9.07;6.70;;;;;;;17.94;29.97;101310.59;3587050;40;20078;-74
2021/04/20 11:38:01;;;;;;;9.40;6.97;;;;;;;18.00;29.70;101302.47;3587662;39;20048;-72
2021/04/20 11:40:32;;;;;;;9.27;6.70;;;;;;;18.00;29.62;101310.78;3587649;40;20048;-73
2021/04/20 11:43:02;;;;;;;8.88;6.53;;;;;;;18.04;28.93;101303.00;3582992;40;20060;-71
2021/04/20 11:45:37;;;;;;;10.70;7.30;;;;;;;18.04;28.95;101306.66;3587822;40;20265;-71
2021/04/20 11:48:10;;;;;;;9.07;6.75;;;;;;;18.04;28.38;101308.53;3586100;40;20044;-70